Time;durP1;ratioP1;P1;durP2;ratioP2;P2;SDS_P1;SDS_P2;PMS_P1;PMS_P2;Temp;Humidity;BMP_temperature;BMP_pressure;BME280_temperature;BME280_humidity;BME280_pressure;Samples;Min_cycle;Max_cycle;Signal;HPM_P1;HPM_P2
2022/04/27 00:00:57;;;;;;;13.27;6.20;;;;;;;5.73;100.00;101577.81;7390769;19;20389;-54
2022/04/27 00:03:27;;;;;;;11.13;5.60;;;;;;;5.71;100.00;101576.81;7383717;19;20408;-51
2022/04/27 00:05:56;;;;;;;17.50;5.70;;;;;;;5.62;100.00;101573.56;7388735;19;20744;-53
2022/04/27 00:08:26;;;;;;;11.27;5.80;;;;;;;5.61;100.00;101571.78;7384882;19;20514;-53
2022/04/27 00:10:55;;;;;;;9.37;5.90;;;;;;;5.62;100.00;101565.88;7391029;19;20374;-56
2022/04/27 00:13:27;;;;;;;11.53;5.97;;;;;;;5.66;100.00;101571.34;7380680;19;20414;-54
2022/04/27 00:15:57;;;;;;;16.80;5.90;;;;;;;5.63;100.00;101576.25;7387877;19;20419;-57
2022/04/27 00:18:26;;;;;;;10.00;5.70;;;;;;;5.51;100.00;101583.91;7383713;19;20417;-52
2022/04/27 00:20:56;;;;;;;13.43;5.30;;;;;;;5.47;100.00;101587.00;7391427;19;20403;-56
2022/04/27 00:23:26;;;;;;;13.43;7.20;;;;;;;5.40;100.00;101575.38;7385688;19;20427;-55
2022/04/27 00:25:56;;;;;;;23.57;7.13;;;;;;;5.51;100.00;101578.78;7388803;19;20492;-55
2022/04/27 00:28:28;;;;;;;13.17;6.87;;;;;;;5.89;100.00;101566.16;7385318;19;20415;-53
2022/04/27 00:30:58;;;;;;;9.50;6.30;;;;;;;5.77;100.00;101571.25;7390261;19;20382;-53
2022/04/27 00:33:27;;;;;;;12.90;6.27;;;;;;;5.68;100.00;101566.34;7385834;19;20415;-49
2022/04/27 00:35:57;;;;;;;17.13;6.07;;;;;;;5.54;100.00;101566.19;7389048;19;20425;-55
2022/04/27 00:38:27;;;;;;;11.93;5.47;;;;;;;5.50;100.00;101571.84;7383520;19;20426;-57
2022/04/27 00:40:56;;;;;;;15.30;5.37;;;;;;;5.35;100.00;101570.72;7390876;19;20385;-52
2022/04/27 00:43:43;;;;;;;15.27;6.97;;;;;;;5.74;100.00;101560.81;7379475;19;20515;-58
2022/04/27 00:46:13;;;;;;;19.13;7.87;;;;;;;6.02;100.00;101558.63;7391409;19;20444;-54
2022/04/27 00:48:43;;;;;;;15.73;5.53;;;;;;;5.79;100.00;101570.59;7384470;19;20864;-50
2022/04/27 00:51:15;;;;;;;9.37;5.87;;;;;;;5.87;100.00;101572.81;7390640;19;20395;-58
2022/04/27 00:53:44;;;;;;;12.23;5.97;;;;;;;5.93;100.00;101570.72;7385166;19;20427;-52
2022/04/27 00:56:15;;;;;;;18.23;6.53;;;;;;;5.84;100.00;101572.63;7388137;19;20410;-54
2022/04/27 00:58:48;;;;;;;15.80;6.80;;;;;;;5.94;100.00;101575.06;7390063;19;20409;-53
2022/04/27 01:01:21;;;;;;;15.07;6.67;;;;;;;6.13;100.00;101576.44;7402594;19;20397;-51
2022/04/27 01:03:50;;;;;;;16.77;7.10;;;;;;;6.02;100.00;101579.13;7389267;19;20420;-55
2022/04/27 01:06:21;;;;;;;17.93;6.40;;;;;;;5.58;100.00;101579.25;7391611;19;20431;-58
2022/04/27 01:08:50;;;;;;;16.47;6.47;;;;;;;5.75;100.00;101578.81;7391987;19;20763;-55
2022/04/27 01:11:20;;;;;;;14.10;6.00;;;;;;;5.71;100.00;101579.38;7398634;19;20381;-54
2022/04/27 01:13:52;;;;;;;12.93;6.83;;;;;;;5.78;100.00;101579.06;7389686;19;20450;-55
2022/04/27 01:16:21;;;;;;;14.50;6.23;;;;;;;5.78;100.00;101573.03;7398539;19;20389;-54
2022/04/27 01:18:52;;;;;;;18.50;6.17;;;;;;;5.88;100.00;101577.16;7390130;19;20492;-50
2022/04/27 01:21:26;;;;;;;11.70;6.20;;;;;;;5.73;100.00;101582.94;7397859;19;20383;-57
2022/04/27 01:23:56;;;;;;;19.20;6.90;;;;;;;5.81;100.00;101583.53;7391222;19;20859;-54
2022/04/27 01:26:25;;;;;;;130.80;62.30;;;;;;;6.40;100.00;101571.56;7395037;19;20388;-51
2022/04/27 01:28:55;;;;;;;35.40;16.80;;;;;;;7.47;100.00;101581.47;7390493;19;20421;-50
2022/04/27 01:31:24;;;;;;;25.13;9.90;;;;;;;7.22;100.00;101605.47;7398193;19;20398;-54
2022/04/27 01:33:55;;;;;;;26.73;12.40;;;;;;;7.03;100.00;101621.28;7390282;19;20425;-57
2022/04/27 01:36:27;;;;;;;10.17;4.90;;;;;;;6.15;100.00;101631.28;7396863;19;20390;-51
2022/04/27 01:38:56;;;;;;;21.53;5.50;;;;;;;5.54;100.00;101625.09;7392244;19;20414;-54
2022/04/27 01:41:26;;;;;;;16.93;5.97;;;;;;;5.23;100.00;101626.97;7396813;19;20399;-51
2022/04/27 01:43:57;;;;;;;14.80;6.10;;;;;;;5.35;100.00;101617.69;7391787;19;20421;-53
2022/04/27 01:46:27;;;;;;;19.47;6.80;;;;;;;5.64;100.00;101613.00;7395092;19;20389;-51
2022/04/27 01:48:56;;;;;;;15.13;8.13;;;;;;;5.64;100.00;101607.88;7391788;19;20414;-56
2022/04/27 01:54:19;;;;;;;19.70;9.47;;;;;;;5.78;100.00;101607.22;7389654;19;20412;-52
2022/04/27 01:56:50;;;;;;;17.43;8.10;;;;;;;5.67;100.00;101619.25;7397362;19;21228;-54
2022/04/27 01:59:20;;;;;;;13.53;6.80;;;;;;;5.39;100.00;101614.56;7391992;19;20411;-56
2022/04/27 02:01:49;;;;;;;18.90;7.90;;;;;;;5.32;100.00;101614.00;7397259;19;20745;-54
2022/04/27 02:04:19;;;;;;;13.43;6.00;;;;;;;5.47;100.00;101610.03;7388694;19;20838;-52
2022/04/27 02:06:51;;;;;;;15.10;6.70;;;;;;;5.73;100.00;101610.22;7394842;19;20388;-48
2022/04/27 02:09:20;;;;;;;13.43;6.47;;;;;;;5.75;100.00;101619.78;7388094;19;20426;-54
2022/04/27 02:11:50;;;;;;;12.73;7.43;;;;;;;5.56;100.00;101617.53;7396744;19;20381;-56
2022/04/27 02:14:19;;;;;;;18.63;9.50;;;;;;;5.72;100.00;101617.00;7388642;19;20436;-50
2022/04/27 02:16:50;;;;;;;14.57;5.97;;;;;;;5.70;100.00;101620.22;7396144;19;20388;-52
2022/04/27 02:19:20;;;;;;;16.57;8.03;;;;;;;5.68;100.00;101622.66;7390583;19;20416;-52
2022/04/27 02:21:53;;;;;;;12.57;6.73;;;;;;;5.56;100.00;101629.41;7395740;19;20388;-58
2022/04/27 02:24:22;;;;;;;12.70;6.87;;;;;;;5.47;100.00;101621.94;7391582;19;20982;-59
2022/04/27 02:26:52;;;;;;;15.80;6.70;;;;;;;5.26;100.00;101622.97;7394802;19;20733;-56
2022/04/27 02:29:22;;;;;;;16.23;7.40;;;;;;;5.39;100.00;101623.94;7390198;19;20421;-54
2022/04/27 02:31:51;;;;;;;23.37;6.80;;;;;;;5.23;100.00;101627.84;7395511;19;20395;-56
2022/04/27 02:34:21;;;;;;;14.33;6.17;;;;;;;5.19;100.00;101627.50;7386986;19;21061;-51
2022/04/27 02:36:53;;;;;;;14.97;6.50;;;;;;;4.66;100.00;101631.94;7396681;19;20400;-57
2022/04/27 02:39:22;;;;;;;16.10;5.93;;;;;;;4.90;100.00;101621.88;7390176;19;20415;-58
2022/04/27 02:41:52;;;;;;;14.90;6.50;;;;;;;4.97;100.00;101611.38;7398237;19;20388;-54
2022/04/27 02:44:21;;;;;;;18.87;8.17;;;;;;;5.16;100.00;101614.44;7387854;19;20425;-54
2022/04/27 02:46:51;;;;;;;9.60;5.73;;;;;;;5.15;100.00;101611.03;7394403;19;20394;-55
2022/04/27 02:52:06;;;;;;;9.50;6.20;;;;;;;4.60;100.00;101621.25;7395389;19;20388;-55
2022/04/27 02:54:36;;;;;;;16.00;7.27;;;;;;;4.96;100.00;101607.03;7388681;19;20415;-57
2022/04/27 02:57:06;;;;;;;17.53;6.97;;;;;;;5.01;100.00;101607.38;7395608;19;20399;-52
2022/04/27 02:59:36;;;;;;;11.57;5.70;;;;;;;4.78;100.00;101603.94;7387260;19;20764;-51
2022/04/27 03:02:06;;;;;;;12.30;6.43;;;;;;;4.64;100.00;101607.03;7394993;19;20908;-53
2022/04/27 03:04:36;;;;;;;11.57;5.87;;;;;;;4.53;100.00;101621.53;7386667;19;20411;-54
2022/04/27 03:07:09;;;;;;;17.90;6.70;;;;;;;4.88;100.00;101600.44;7397644;19;20479;-54
2022/04/27 03:09:39;;;;;;;14.60;7.00;;;;;;;4.80;100.00;101609.13;7389417;19;20420;-49
2022/04/27 03:12:09;;;;;;;10.87;6.43;;;;;;;4.31;100.00;101618.13;7398951;19;20748;-49
2022/04/27 03:14:39;;;;;;;21.80;9.00;;;;;;;4.15;100.00;101605.78;7388094;19;20415;-54
2022/04/27 03:17:08;;;;;;;13.80;7.13;;;;;;;4.55;100.00;101594.41;7395073;19;20383;-51
2022/04/27 03:19:38;;;;;;;10.93;6.90;;;;;;;4.55;100.00;101597.88;7388398;19;20407;-54
2022/04/27 03:22:10;;;;;;;14.00;7.17;;;;;;;4.21;100.00;101605.41;7392633;19;20394;-56
2022/04/27 03:24:40;;;;;;;19.90;10.20;;;;;;;4.15;100.00;101599.78;7384446;19;20413;-53
2022/04/27 03:27:10;;;;;;;12.97;6.40;;;;;;;3.98;100.00;101600.94;7393320;19;20467;-57
2022/04/27 03:29:40;;;;;;;13.70;7.17;;;;;;;4.08;100.00;101583.06;7389804;19;20394;-56
2022/04/27 03:32:12;;;;;;;21.10;7.60;;;;;;;4.66;100.00;101578.28;7393458;19;20391;-56
2022/04/27 03:34:41;;;;;;;16.47;7.80;;;;;;;4.67;100.00;101585.16;7387110;19;21021;-49
2022/04/27 03:37:13;;;;;;;14.03;6.90;;;;;;;4.44;100.00;101589.34;7394419;19;20388;-56
2022/04/27 03:39:42;;;;;;;13.50;6.47;;;;;;;4.38;100.00;101590.50;7388732;19;20426;-53
2022/04/27 03:42:12;;;;;;;16.27;7.30;;;;;;;4.25;100.00;101586.09;7394018;19;20415;-55
2022/04/27 03:44:42;;;;;;;16.00;6.10;;;;;;;4.05;100.00;101599.03;7381731;19;20398;-57
2022/04/27 03:47:11;;;;;;;21.07;7.47;;;;;;;4.04;100.00;101601.44;7392698;19;20395;-57
2022/04/27 03:49:41;;;;;;;15.73;7.27;;;;;;;4.47;100.00;101596.38;7383648;19;20752;-54
2022/04/27 03:52:13;;;;;;;15.83;7.57;;;;;;;5.21;100.00;101585.91;7393371;19;20394;-54
2022/04/27 03:54:42;;;;;;;13.83;7.37;;;;;;;4.95;100.00;101606.91;7386133;19;20422;-55
2022/04/27 03:57:12;;;;;;;21.17;7.30;;;;;;;4.46;100.00;101617.56;7393125;19;20405;-56
2022/04/27 03:59:41;;;;;;;18.70;7.33;;;;;;;4.20;100.00;101626.56;7387859;19;20416;-54
2022/04/27 04:02:11;;;;;;;18.20;8.00;;;;;;;3.96;100.00;101617.81;7393363;19;20386;-55
2022/04/27 04:04:41;;;;;;;15.20;6.83;;;;;;;4.22;100.00;101613.94;7385126;19;20490;-56
2022/04/27 04:07:13;;;;;;;17.53;7.60;;;;;;;4.14;100.00;101621.88;7392267;19;20395;-53
2022/04/27 04:09:42;;;;;;;25.23;7.93;;;;;;;4.30;100.00;101611.22;7386659;19;20415;-57
2022/04/27 04:12:12;;;;;;;16.77;7.10;;;;;;;4.33;100.00;101608.03;7392066;19;20377;-53
2022/04/27 04:14:42;;;;;;;19.73;7.40;;;;;;;4.38;100.00;101609.31;7386156;19;20418;-58
2022/04/27 04:17:11;;;;;;;18.23;6.70;;;;;;;4.35;100.00;101624.38;7393257;19;20392;-57
2022/04/27 04:19:41;;;;;;;17.50;7.80;;;;;;;4.30;100.00;101628.22;7388256;19;20415;-57
2022/04/27 04:22:13;;;;;;;17.43;9.13;;;;;;;4.03;100.00;101623.56;7392657;19;20385;-55
2022/04/27 04:28:29;;;;;;;16.80;7.93;;;;;;;3.95;100.00;101627.13;7385671;19;20408;-51
2022/04/27 04:30:15;;;;;;;15.23;8.53;;;;;;;4.35;100.00;101619.25;7390585;19;20750;-57
2022/04/27 04:32:45;;;;;;;15.23;7.67;;;;;;;4.72;100.00;101612.00;7395398;19;20392;-58
2022/04/27 04:35:14;;;;;;;14.53;7.10;;;;;;;4.55;100.00;101620.88;7395556;19;20532;-56
2022/04/27 04:37:46;;;;;;;14.90;7.80;;;;;;;4.54;100.00;101625.84;7399492;19;20367;-56
2022/04/27 04:40:16;;;;;;;20.73;8.50;;;;;;;4.69;100.00;101633.88;7403105;19;20436;-58
2022/04/27 04:42:45;;;;;;;10.40;6.53;;;;;;;4.58;100.00;101643.25;7399354;19;20384;-54
2022/04/27 04:45:15;;;;;;;11.90;7.10;;;;;;;4.62;100.00;101640.16;7390756;19;20537;-54
2022/04/27 04:47:45;;;;;;;12.17;6.83;;;;;;;4.85;100.00;101643.66;7397414;19;20388;-51
2022/04/27 04:50:15;;;;;;;16.37;8.10;;;;;;;4.87;100.00;101636.97;7392363;19;20403;-52
2022/04/27 04:52:47;;;;;;;16.67;7.27;;;;;;;4.86;100.00;101645.44;7399356;19;20403;-56
2022/04/27 04:55:17;;;;;;;15.83;7.57;;;;;;;4.97;100.00;101659.09;7396400;19;20391;-56
2022/04/27 04:57:46;;;;;;;15.60;6.83;;;;;;;4.90;100.00;101652.59;7399599;19;20716;-55
2022/04/27 05:00:16;;;;;;;14.07;7.00;;;;;;;4.82;100.00;101661.31;7399785;19;20439;-56
2022/04/27 05:02:46;;;;;;;22.43;7.03;;;;;;;5.08;100.00;101657.38;7398233;19;20384;-53
2022/04/27 05:05:15;;;;;;;14.70;5.77;;;;;;;5.03;100.00;101668.91;7400391;19;20460;-52
2022/04/27 05:07:48;;;;;;;13.13;7.13;;;;;;;5.04;100.00;101674.16;7396538;19;20925;-55
2022/04/27 05:10:17;;;;;;;13.50;5.83;;;;;;;4.92;100.00;101675.72;7397259;19;20408;-56
2022/04/27 05:12:47;;;;;;;11.87;6.10;;;;;;;4.82;100.00;101685.22;7398963;19;20363;-57
2022/04/27 05:15:16;;;;;;;14.83;6.27;;;;;;;5.14;100.00;101679.19;7396109;19;20411;-58
2022/04/27 05:17:46;;;;;;;12.90;6.20;;;;;;;5.32;100.00;101683.09;7398701;19;20391;-57
2022/04/27 05:20:15;;;;;;;12.60;6.50;;;;;;;5.06;100.00;101690.50;7396867;19;20416;-58
2022/04/27 05:22:47;;;;;;;12.80;6.70;;;;;;;5.27;100.00;101690.38;7398684;19;20733;-58
2022/04/27 05:25:18;;;;;;;14.63;7.07;;;;;;;5.48;100.00;101685.19;7395745;19;20425;-56
2022/04/27 05:27:50;;;;;;;14.60;6.30;;;;;;;5.58;100.00;101692.78;7389265;19;20385;-61
2022/04/27 05:33:05;;;;;;;11.33;6.80;;;;;;;5.35;100.00;101714.03;7393794;19;21012;-59
2022/04/27 05:35:41;;;;;;;11.83;6.50;;;;;;;5.57;100.00;101715.69;7395801;19;20441;-55
2022/04/27 05:38:13;;;;;;;14.83;6.93;;;;;;;5.78;100.00;101721.56;7391170;19;20439;-56
2022/04/27 05:40:43;;;;;;;16.13;6.40;;;;;;;5.83;100.00;101735.63;7398225;19;20388;-49
2022/04/27 05:43:13;;;;;;;9.93;6.10;;;;;;;5.85;100.00;101738.31;7387495;19;20414;-54
2022/04/27 05:45:43;;;;;;;16.07;7.00;;;;;;;5.92;100.00;101751.72;7393728;19;20412;-57
2022/04/27 05:48:12;;;;;;;12.90;6.60;;;;;;;6.11;100.00;101757.38;7389384;19;20405;-59
2022/04/27 05:50:42;;;;;;;15.70;7.00;;;;;;;6.04;100.00;101761.13;7396929;19;20464;-58
2022/04/27 05:53:19;;;;;;;13.57;7.70;;;;;;;6.03;100.00;101775.63;7392637;19;20411;-57
2022/04/27 05:55:49;;;;;;;17.90;7.10;;;;;;;6.17;100.00;101778.34;7393744;19;20404;-54
2022/04/27 05:58:19;;;;;;;13.50;6.50;;;;;;;5.95;100.00;101787.81;7389957;19;20418;-53
2022/04/27 06:00:49;;;;;;;16.13;7.23;;;;;;;6.09;100.00;101790.56;7396690;19;20730;-48
2022/04/27 06:03:18;;;;;;;14.13;7.20;;;;;;;6.19;100.00;101799.84;7385883;19;20500;-51
2022/04/27 06:05:48;;;;;;;13.50;6.40;;;;;;;6.67;100.00;101798.28;7394098;19;20429;-53
2022/04/27 06:08:20;;;;;;;12.90;7.47;;;;;;;6.51;100.00;101811.66;7388771;19;20758;-57
2022/04/27 06:10:57;;;;;;;15.10;6.83;;;;;;;6.45;100.00;101806.06;7396742;19;20391;-52
2022/04/27 06:13:26;;;;;;;12.47;6.70;;;;;;;6.54;100.00;101817.03;7387927;19;20415;-57
2022/04/27 06:15:56;;;;;;;12.67;6.20;;;;;;;6.48;100.00;101822.56;7392047;19;21285;-55
2022/04/27 06:18:25;;;;;;;8.90;5.67;;;;;;;6.58;100.00;101818.13;7389358;19;20453;-53
2022/04/27 06:20:56;;;;;;;17.33;6.33;;;;;;;6.69;100.00;101822.41;7397809;19;20402;-53
2022/04/27 06:23:28;;;;;;;17.00;7.57;;;;;;;6.68;100.00;101829.97;7389115;19;20415;-50
2022/04/27 06:25:57;;;;;;;11.70;5.87;;;;;;;6.93;100.00;101836.94;7397321;19;20766;-55
2022/04/27 06:28:32;;;;;;;11.67;5.63;;;;;;;7.22;100.00;101838.19;7388055;19;20478;-50
2022/04/27 06:31:01;;;;;;;12.93;5.33;;;;;;;7.36;100.00;101845.22;7396244;19;20456;-50
2022/04/27 06:33:31;;;;;;;11.37;5.43;;;;;;;7.38;100.00;101860.75;7389975;19;20450;-55
2022/04/27 06:36:03;;;;;;;13.63;5.20;;;;;;;7.28;100.00;101859.19;7395924;19;20429;-53
2022/04/27 06:38:35;;;;;;;11.77;5.47;;;;;;;7.43;100.00;101856.78;7386846;19;20808;-53
2022/04/27 06:41:08;;;;;;;11.70;4.97;;;;;;;7.68;100.00;101863.69;7395529;19;20416;-54
2022/04/27 06:43:38;;;;;;;10.83;5.17;;;;;;;7.73;100.00;101870.06;7385313;19;20509;-55
2022/04/27 06:46:07;;;;;;;13.63;4.97;;;;;;;7.54;100.00;101873.00;7393836;19;20423;-57
2022/04/27 06:48:37;;;;;;;16.77;5.73;;;;;;;7.57;100.00;101875.78;7389914;19;20502;-56
2022/04/27 06:51:06;;;;;;;8.07;4.70;;;;;;;7.54;100.00;101880.72;7397191;19;20417;-51
2022/04/27 06:53:39;;;;;;;10.93;4.50;;;;;;;7.64;100.00;101879.69;7389752;19;21186;-51
2022/04/27 06:56:09;;;;;;;8.77;4.40;;;;;;;7.74;100.00;101891.53;7393283;19;20412;-53
2022/04/27 06:58:38;;;;;;;10.73;4.87;;;;;;;7.81;100.00;101896.31;7388708;19;20434;-53
2022/04/27 07:01:08;;;;;;;16.63;5.50;;;;;;;7.77;100.00;101899.44;7394385;19;20398;-53
2022/04/27 07:03:38;;;;;;;14.10;4.07;;;;;;;8.32;100.00;101898.97;7388992;19;20427;-54
2022/04/27 07:06:08;;;;;;;8.10;5.00;;;;;;;8.62;100.00;101912.19;7392986;19;20741;-53
2022/04/27 07:08:40;;;;;;;11.20;4.57;;;;;;;8.62;100.00;101922.47;7389142;19;20410;-57
2022/04/27 07:11:09;;;;;;;10.60;4.10;;;;;;;9.05;100.00;101927.97;7394075;19;20391;-57
2022/04/27 07:13:39;;;;;;;9.40;3.90;;;;;;;9.22;100.00;101943.63;7383860;19;20583;-54
2022/04/27 07:16:08;;;;;;;13.73;4.27;;;;;;;9.17;100.00;101945.00;7392476;19;20411;-55
2022/04/27 07:18:38;;;;;;;9.00;5.00;;;;;;;9.11;100.00;101949.72;7386642;19;20418;-57
2022/04/27 07:21:08;;;;;;;13.83;4.03;;;;;;;9.16;100.00;101948.38;7394879;19;20455;-55
2022/04/27 07:23:42;;;;;;;14.60;4.60;;;;;;;8.67;100.00;101956.25;7386260;19;20419;-55
2022/04/27 07:26:11;;;;;;;15.17;4.70;;;;;;;8.22;100.00;101946.28;7396659;19;20496;-56
2022/04/27 07:28:41;;;;;;;8.90;4.63;;;;;;;8.19;100.00;101939.25;7384250;19;20419;-56
2022/04/27 07:31:11;;;;;;;16.43;6.03;;;;;;;8.34;100.00;101938.53;7393643;19;20431;-57
2022/04/27 07:33:40;;;;;;;11.70;4.07;;;;;;;8.32;100.00;101947.81;7386373;19;20766;-58
2022/04/27 07:36:10;;;;;;;14.40;5.00;;;;;;;8.31;100.00;101943.47;7391690;19;20564;-58
2022/04/27 07:38:42;;;;;;;14.43;5.90;;;;;;;8.32;100.00;101943.56;7386435;19;20421;-58
2022/04/27 07:41:12;;;;;;;10.90;5.40;;;;;;;8.29;100.00;101947.59;7394566;19;20390;-56
2022/04/27 07:43:42;;;;;;;12.93;4.27;;;;;;;8.24;100.00;101945.63;7387467;19;20419;-52
2022/04/27 07:46:11;;;;;;;12.13;4.40;;;;;;;8.38;100.00;101948.25;7393441;19;20435;-53
2022/04/27 07:48:41;;;;;;;15.23;5.20;;;;;;;8.55;100.00;101946.88;7387009;19;20437;-52
2022/04/27 07:51:11;;;;;;;11.37;4.90;;;;;;;8.41;100.00;101950.16;7393254;19;20910;-53
2022/04/27 07:53:43;;;;;;;11.97;4.43;;;;;;;8.65;100.00;101958.69;7387546;19;20418;-55
2022/04/27 07:56:12;;;;;;;12.27;4.70;;;;;;;8.71;100.00;101956.53;7391274;19;20423;-57
2022/04/27 07:58:42;;;;;;;14.07;4.97;;;;;;;8.91;100.00;101962.16;7387849;19;20497;-54
2022/04/27 08:01:12;;;;;;;17.53;5.60;;;;;;;8.91;100.00;101967.31;7393838;19;20388;-52
2022/04/27 08:03:41;;;;;;;9.97;4.93;;;;;;;8.90;100.00;101961.28;7388016;19;20423;-52
2022/04/27 08:06:11;;;;;;;9.17;4.90;;;;;;;8.93;100.00;101964.84;7393902;19;20442;-52
2022/04/27 08:08:43;;;;;;;14.20;5.47;;;;;;;8.96;100.00;101973.66;7387050;19;20427;-55
2022/04/27 08:11:13;;;;;;;10.67;4.50;;;;;;;9.12;100.00;101982.44;7393258;19;20391;-51
2022/04/27 08:13:42;;;;;;;9.77;4.40;;;;;;;8.97;100.00;101987.44;7386856;19;20423;-54
2022/04/27 08:16:12;;;;;;;8.60;4.13;;;;;;;9.22;100.00;101981.38;7391196;19;20956;-54
2022/04/27 08:18:42;;;;;;;10.20;4.07;;;;;;;9.32;100.00;101986.31;7385807;19;20415;-56
2022/04/27 08:21:21;;;;;;;6.63;3.70;;;;;;;9.43;100.00;101992.19;7393193;19;20437;-53
2022/04/27 08:23:53;;;;;;;10.30;3.70;;;;;;;9.23;100.00;101999.47;7387573;19;20425;-50
2022/04/27 08:26:22;;;;;;;8.87;3.97;;;;;;;9.11;100.00;101996.06;7395726;19;20390;-54
2022/04/27 08:28:52;;;;;;;8.93;3.77;;;;;;;8.94;100.00;102001.00;7386609;19;20422;-51
2022/04/27 08:31:22;;;;;;;18.70;4.57;;;;;;;9.07;100.00;101999.25;7391937;19;20399;-53
2022/04/27 08:33:51;;;;;;;17.57;4.83;;;;;;;9.30;100.00;101999.13;7384464;19;20415;-57
2022/04/27 08:36:21;;;;;;;20.50;5.47;;;;;;;9.37;100.00;102005.56;7390030;19;20414;-54
2022/04/27 08:39:00;;;;;;;11.90;4.23;;;;;;;9.49;100.00;102010.63;7386681;19;20414;-56
2022/04/27 08:41:30;;;;;;;15.50;4.03;;;;;;;9.50;100.00;102022.75;7391986;19;20384;-57
2022/04/27 08:44:01;;;;;;;8.10;3.43;;;;;;;9.50;100.00;102022.75;7387868;19;20439;-55
2022/04/27 08:46:31;;;;;;;17.80;5.10;;;;;;;9.59;100.00;102013.03;7395559;19;20411;-55
2022/04/27 08:49:01;;;;;;;8.17;3.37;;;;;;;9.71;100.00;102012.06;7383098;19;20438;-53
2022/04/27 08:51:31;;;;;;;8.67;4.10;;;;;;;9.86;100.00;102023.34;7396064;19;20413;-49
2022/04/27 08:54:03;;;;;;;12.73;5.07;;;;;;;9.80;100.00;102017.78;7386149;19;20419;-60
2022/04/27 08:56:35;;;;;;;7.67;4.13;;;;;;;9.95;100.00;102022.19;7391845;19;20467;-53
2022/04/27 08:59:05;;;;;;;7.80;4.13;;;;;;;9.89;100.00;102029.50;7385336;19;20426;-53
2022/04/27 09:01:35;;;;;;;9.40;4.13;;;;;;;9.88;100.00;102023.47;7391688;19;20384;-53
2022/04/27 09:04:15;;;;;;;8.10;4.03;;;;;;;10.05;100.00;102021.09;7383075;19;20419;-56
2022/04/27 09:06:47;;;;;;;10.33;3.90;;;;;;;10.18;100.00;102025.31;7391415;19;20379;-57
2022/04/27 09:09:39;;;;;;;13.80;5.10;;;;;;;10.10;100.00;102023.16;7384032;19;20830;-53
2022/04/27 09:12:16;;;;;;;11.27;4.20;;;;;;;10.16;100.00;102029.50;7391521;19;20379;-54
2022/04/27 09:14:46;;;;;;;13.17;4.77;;;;;;;10.08;100.00;102034.16;7384655;19;20411;-55
2022/04/27 09:23:00;;;;;;;10.60;4.93;;;;;;;10.70;100.00;102032.00;7393699;19;20390;-54
2022/04/27 09:25:36;;;;;;;12.47;4.20;;;;;;;10.72;100.00;102030.41;7398029;19;20422;-59
2022/04/27 09:28:26;;;;;;;10.77;4.17;;;;;;;10.45;100.00;102033.06;7391312;19;20981;-54
2022/04/27 09:30:56;;;;;;;9.33;4.33;;;;;;;10.65;100.00;102022.28;7396086;19;20380;-53
2022/04/27 09:33:33;;;;;;;8.20;3.60;;;;;;;10.88;100.00;102027.09;7390283;19;20408;-56
2022/04/27 09:36:05;;;;;;;9.77;5.13;;;;;;;10.93;100.00;102030.84;7395596;19;20441;-53
2022/04/27 09:38:43;;;;;;;7.50;4.33;;;;;;;11.08;100.00;102030.88;7391836;19;20447;-58
2022/04/27 09:41:15;;;;;;;6.60;3.60;;;;;;;11.17;100.00;102036.56;7398171;19;20397;-55
2022/04/27 09:43:46;;;;;;;10.20;3.70;;;;;;;11.55;100.00;102028.41;7386818;19;20474;-53
2022/04/27 09:46:22;;;;;;;10.17;3.90;;;;;;;11.61;100.00;102034.84;7393825;19;20430;-56
2022/04/27 09:49:11;;;;;;;8.70;4.80;;;;;;;11.52;100.00;102025.63;7391342;19;20442;-56
2022/04/27 09:52:01;;;;;;;8.80;4.03;;;;;;;11.47;100.00;102026.28;7397977;19;20399;-56
2022/04/27 09:54:34;;;;;;;10.30;4.50;;;;;;;11.81;100.00;102041.94;7390071;19;20511;-55
2022/04/27 09:57:08;;;;;;;11.87;4.20;;;;;;;11.51;100.00;102047.13;7397049;19;20731;-59
2022/04/27 09:59:40;;;;;;;8.50;3.90;;;;;;;11.67;100.00;102039.47;7390377;19;20419;-54
2022/04/27 10:02:13;;;;;;;6.60;4.37;;;;;;;11.87;100.00;102038.03;7396077;19;20390;-55
2022/04/27 10:04:44;;;;;;;10.97;4.87;;;;;;;11.73;100.00;102032.06;7391155;19;20411;-54
2022/04/27 10:07:14;;;;;;;7.00;4.10;;;;;;;11.90;100.00;102039.91;7397037;19;20381;-54
2022/04/27 10:09:44;;;;;;;9.43;4.60;;;;;;;11.99;100.00;102037.81;7390096;19;20432;-56
2022/04/27 10:12:17;;;;;;;9.13;4.23;;;;;;;12.04;100.00;102032.06;7397185;19;20406;-54
2022/04/27 10:14:47;;;;;;;10.83;4.47;;;;;;;11.94;100.00;102039.25;7387721;19;20421;-58
2022/04/27 10:17:17;;;;;;;8.97;5.00;;;;;;;11.94;100.00;102034.06;7394106;19;20741;-54
2022/04/27 10:19:47;;;;;;;11.47;3.70;;;;;;;11.70;100.00;102031.88;7389375;19;20430;-55
2022/04/27 10:22:27;;;;;;;13.53;6.10;;;;;;;11.16;100.00;102027.06;7393819;19;20389;-56
2022/04/27 10:24:58;;;;;;;16.50;5.10;;;;;;;11.32;100.00;102030.53;7387603;19;20430;-55
2022/04/27 10:27:39;;;;;;;11.40;4.83;;;;;;;11.56;100.00;102025.94;7393205;19;20396;-54
2022/04/27 10:30:11;;;;;;;13.17;4.07;;;;;;;11.66;100.00;102036.78;7386865;19;20433;-58
2022/04/27 10:32:43;;;;;;;8.43;3.90;;;;;;;11.51;100.00;102041.94;7393230;19;20394;-59
2022/04/27 10:35:33;;;;;;;13.20;5.60;;;;;;;11.43;100.00;102029.47;7385457;19;20417;-54
2022/04/27 10:38:05;;;;;;;9.77;4.20;;;;;;;11.48;100.00;102033.22;7387330;19;20844;-58
2022/04/27 10:40:36;;;;;;;13.37;4.17;;;;;;;11.60;100.00;102034.75;7394056;19;20398;-54
2022/04/27 10:43:31;;;;;;;10.83;3.57;;;;;;;11.61;100.00;102033.94;7388576;19;20398;-53
2022/04/27 10:46:00;;;;;;;8.30;3.97;;;;;;;11.19;100.00;102045.31;7392603;19;20405;-56
2022/04/27 10:48:48;;;;;;;11.50;3.97;;;;;;;11.58;100.00;102038.91;7389983;19;20435;-56
2022/04/27 10:51:18;;;;;;;10.90;3.60;;;;;;;11.92;100.00;102052.91;7392093;19;20394;-57
2022/04/27 10:53:48;;;;;;;16.97;5.73;;;;;;;12.04;100.00;102048.44;7387804;19;20410;-56
2022/04/27 10:56:36;;;;;;;13.30;3.87;;;;;;;11.82;100.00;102048.91;7393732;19;20381;-52
2022/04/27 10:59:43;;;;;;;8.33;4.20;;;;;;;11.72;100.00;102053.56;7387503;19;20408;-52
2022/04/27 11:02:34;;;;;;;51.53;26.27;;;;;;;11.75;100.00;102048.53;7393816;19;20380;-54
2022/04/27 11:05:04;;;;;;;7.43;3.90;;;;;;;11.31;100.00;102050.31;7387368;19;20421;-57
2022/04/27 11:07:36;;;;;;;13.47;4.40;;;;;;;11.85;100.00;102049.09;7394408;19;20396;-53
2022/04/27 11:10:21;;;;;;;11.57;5.40;;;;;;;12.08;100.00;102047.84;7386898;19;20809;-56
2022/04/27 11:12:52;;;;;;;7.97;4.43;;;;;;;11.75;100.00;102066.63;7387334;19;20389;-55
2022/04/27 11:15:26;;;;;;;10.03;5.70;;;;;;;11.46;100.00;102042.59;7391771;19;20941;-52
2022/04/27 11:18:02;;;;;;;12.53;5.27;;;;;;;11.35;100.00;102052.28;7387340;19;20402;-50
2022/04/27 11:20:34;;;;;;;8.70;4.93;;;;;;;11.45;100.00;102061.47;7391778;19;20391;-56
2022/04/27 11:23:07;;;;;;;7.30;4.50;;;;;;;11.52;100.00;102048.91;7385211;19;20388;-53
2022/04/27 11:25:39;;;;;;;12.27;5.07;;;;;;;12.06;100.00;102058.91;7392098;19;20414;-53
2022/04/27 11:28:11;;;;;;;8.57;4.83;;;;;;;12.03;100.00;102062.16;7386809;19;21318;-53
2022/04/27 11:30:43;;;;;;;14.33;4.90;;;;;;;12.26;100.00;102073.84;7392809;19;20418;-57
2022/04/27 11:33:14;;;;;;;8.63;4.37;;;;;;;12.51;100.00;102067.41;7388263;19;20418;-53
2022/04/27 11:35:46;;;;;;;8.00;4.67;;;;;;;12.36;100.00;102069.19;7391698;19;20433;-54
2022/04/27 11:38:19;;;;;;;10.10;4.57;;;;;;;12.19;100.00;102070.84;7385572;19;20418;-53
2022/04/27 11:40:51;;;;;;;6.50;4.13;;;;;;;12.34;100.00;102074.28;7392616;19;20482;-56
2022/04/27 11:43:27;;;;;;;6.67;3.80;;;;;;;12.48;100.00;102075.03;7387016;19;20489;-59
2022/04/27 11:46:00;;;;;;;8.57;3.70;;;;;;;12.13;100.00;102071.38;7390731;19;20791;-56
2022/04/27 11:48:32;;;;;;;7.60;4.80;;;;;;;12.11;100.00;102078.16;7385480;19;20403;-55
2022/04/27 11:51:06;;;;;;;9.03;4.90;;;;;;;12.36;100.00;102071.78;7392761;19;20410;-52
2022/04/27 11:53:45;;;;;;;8.47;4.50;;;;;;;12.50;99.00;102063.06;7386859;19;20427;-55